Time;durP1;ratioP1;P1;durP2;ratioP2;P2;SDS_P1;SDS_P2;PMS_P1;PMS_P2;Temp;Humidity;BMP_temperature;BMP_pressure;BME280_temperature;BME280_humidity;BME280_pressure;Samples;Min_cycle;Max_cycle;Signal;HPM_P1;HPM_P2
2021/12/15 00:00:18;;;;;;;59.75;25.98;;;;;;;12.38;68.92;102832.03;5129112;28;20422;-43
2021/12/15 00:02:52;;;;;;;50.75;26.15;;;;;;;12.36;69.00;102819.88;5123015;28;20431;-49
2021/12/15 00:05:28;;;;;;;51.70;25.13;;;;;;;12.40;69.14;102829.28;5127851;28;20886;-44
2021/12/15 00:08:04;;;;;;;51.47;26.60;;;;;;;12.37;68.97;102822.41;5126162;28;20522;-44
2021/12/15 00:10:36;;;;;;;55.67;26.33;;;;;;;12.38;68.92;102825.88;5127584;28;20447;-42
2021/12/15 00:13:10;;;;;;;60.30;25.92;;;;;;;12.35;69.05;102829.59;5127451;28;20412;-44
2021/12/15 00:15:44;;;;;;;49.55;24.88;;;;;;;12.38;69.04;102829.38;5127709;28;20499;-44
2021/12/15 00:18:17;;;;;;;53.92;23.92;;;;;;;12.34;69.07;102827.91;5123676;28;20899;-44
2021/12/15 00:20:50;;;;;;;49.95;23.83;;;;;;;12.36;69.02;102828.66;5125435;28;20446;-44
2021/12/15 00:23:23;;;;;;;45.08;24.15;;;;;;;12.37;69.18;102827.69;5119614;28;20425;-44
2021/12/15 00:25:55;;;;;;;58.50;24.60;;;;;;;12.31;68.97;102814.91;5125977;28;20446;-44
2021/12/15 00:28:28;;;;;;;47.90;24.60;;;;;;;12.35;69.05;102826.09;5129452;28;20930;-44
2021/12/15 00:31:00;;;;;;;48.30;24.52;;;;;;;12.38;69.04;102817.94;5123619;28;20446;-44
2021/12/15 00:33:34;;;;;;;43.15;23.10;;;;;;;12.40;69.08;102831.94;5126918;28;20778;-43
2021/12/15 00:36:09;;;;;;;48.88;23.05;;;;;;;12.41;68.93;102829.16;5125422;28;20507;-46
2021/12/15 00:38:42;;;;;;;48.60;24.70;;;;;;;12.36;69.11;102826.00;5127967;28;20424;-45
2021/12/15 00:41:15;;;;;;;40.90;21.90;;;;;;;12.34;69.03;102822.63;5126338;28;20442;-44
2021/12/15 00:43:48;;;;;;;49.38;23.25;;;;;;;12.36;69.23;102823.38;5123842;28;20476;-46
2021/12/15 00:46:20;;;;;;;38.58;22.95;;;;;;;12.38;69.10;102829.38;5125852;28;20457;-47
2021/12/15 00:48:53;;;;;;;49.20;23.13;;;;;;;12.37;69.10;102822.41;5126892;28;20400;-44
2021/12/15 00:51:27;;;;;;;42.78;21.65;;;;;;;12.33;69.12;102823.59;5126014;28;20455;-43
2021/12/15 00:53:59;;;;;;;47.22;21.60;;;;;;;12.35;69.19;102829.59;5123857;28;20416;-46
2021/12/15 00:56:32;;;;;;;49.90;22.40;;;;;;;12.36;69.08;102839.25;5126673;28;20893;-43
2021/12/15 00:59:06;;;;;;;54.22;23.58;;;;;;;12.29;69.06;102813.31;5129180;28;20915;-44
2021/12/15 01:01:40;;;;;;;48.80;23.37;;;;;;;12.36;69.10;102825.19;5127051;28;20438;-43
2021/12/15 01:04:16;;;;;;;46.55;22.00;;;;;;;12.32;69.12;102824.53;5126981;28;20440;-44
2021/12/15 01:06:53;;;;;;;49.08;21.52;;;;;;;12.33;69.15;102823.59;5127814;28;20440;-44
2021/12/15 01:09:33;;;;;;;46.33;22.88;;;;;;;12.36;69.16;102831.31;5122940;28;20433;-44
2021/12/15 01:12:18;;;;;;;43.13;22.08;;;;;;;12.37;69.22;102822.41;5124233;28;20442;-44
2021/12/15 01:20:44;;;;;;;43.70;21.27;;;;;;;12.36;69.11;102830.47;5124632;28;20408;-44
2021/12/15 01:23:23;;;;;;;50.17;21.83;;;;;;;12.36;68.92;102826.00;5124606;28;20937;-45
2021/12/15 01:25:59;;;;;;;45.67;23.17;;;;;;;12.35;69.05;102824.31;5122404;28;20428;-44
2021/12/15 01:28:31;;;;;;;53.25;24.38;;;;;;;12.38;68.99;102824.06;5127024;28;20416;-44
2021/12/15 01:31:06;;;;;;;52.17;23.88;;;;;;;12.37;69.00;102822.41;5126011;28;20507;-43
2021/12/15 01:33:39;;;;;;;55.75;22.77;;;;;;;12.35;69.17;102826.94;5123399;28;20523;-43
2021/12/15 01:36:13;;;;;;;52.63;23.37;;;;;;;12.36;68.99;102836.63;5121266;28;20429;-44
2021/12/15 01:38:48;;;;;;;50.53;23.17;;;;;;;12.38;68.99;102833.84;5125467;28;20691;-43
2021/12/15 01:41:23;;;;;;;58.72;23.70;;;;;;;12.38;68.96;102833.84;5123660;28;20892;-46
2021/12/15 01:46:56;;;;;;;50.35;21.48;;;;;;;12.38;68.99;102834.69;5124668;28;20408;-43
2021/12/15 01:49:40;;;;;;;50.33;22.52;;;;;;;12.38;68.81;102833.84;5124630;28;20479;-42
2021/12/15 01:52:29;;;;;;;53.22;21.85;;;;;;;12.32;69.09;102839.59;5124433;28;20487;-45
2021/12/15 01:55:09;;;;;;;47.97;20.07;;;;;;;12.33;69.08;102841.28;5122352;28;20427;-44
2021/12/15 01:57:42;;;;;;;40.63;20.85;;;;;;;12.35;68.96;102840.19;5125038;28;20430;-42
2021/12/15 02:00:22;;;;;;;50.60;21.02;;;;;;;12.35;68.95;102840.19;5123234;28;20768;-45
2021/12/15 02:02:56;;;;;;;47.80;19.70;;;;;;;12.35;68.99;102845.50;5118007;28;20420;-43
2021/12/15 02:05:33;;;;;;;44.28;19.60;;;;;;;12.37;69.02;102842.75;5122226;28;20494;-43
2021/12/15 02:08:08;;;;;;;47.45;20.73;;;;;;;12.37;68.98;102848.91;5122186;28;20821;-44
2021/12/15 02:10:43;;;;;;;44.15;19.75;;;;;;;12.39;68.95;102851.44;5125847;28;20402;-43
2021/12/15 02:13:18;;;;;;;40.22;19.77;;;;;;;12.35;68.84;102848.16;5126629;28;20420;-44
2021/12/15 02:15:55;;;;;;;46.30;20.52;;;;;;;12.33;68.93;102846.59;5121310;28;20516;-47
2021/12/15 02:18:35;;;;;;;40.53;19.23;;;;;;;12.38;68.98;102850.56;5124257;28;20439;-43
2021/12/15 02:21:12;;;;;;;47.17;19.58;;;;;;;12.39;69.00;102856.75;5125203;28;20522;-44
2021/12/15 02:23:50;;;;;;;39.47;19.55;;;;;;;12.12;68.90;102806.63;5123940;28;20404;-43
2021/12/15 02:26:25;;;;;;;38.25;19.17;;;;;;;12.37;69.19;102856.84;5122805;28;20404;-43
2021/12/15 02:29:01;;;;;;;41.80;19.92;;;;;;;12.37;68.99;102864.78;5125110;28;20503;-42
2021/12/15 02:31:41;;;;;;;37.58;20.23;;;;;;;12.39;68.93;102860.25;5129261;28;20908;-43
2021/12/15 02:34:32;;;;;;;38.97;19.30;;;;;;;12.42;68.79;102862.66;5129324;28;20416;-44
2021/12/15 02:37:17;;;;;;;44.45;20.02;;;;;;;12.42;68.78;102862.66;5126960;28;20418;-43
2021/12/15 02:39:53;;;;;;;34.80;18.58;;;;;;;12.39;68.86;102857.59;5127504;28;20792;-45
2021/12/15 02:42:32;;;;;;;38.03;19.35;;;;;;;12.40;68.87;102859.28;5128528;28;20518;-46
2021/12/15 02:45:06;;;;;;;44.30;21.00;;;;;;;12.42;68.88;102849.41;5129009;28;20436;-46
2021/12/15 02:47:40;;;;;;;42.78;20.55;;;;;;;12.44;68.83;102855.44;5128621;28;20442;-45
2021/12/15 02:50:19;;;;;;;43.17;20.52;;;;;;;12.46;68.64;102858.81;5127730;28;20491;-43
2021/12/15 02:52:54;;;;;;;33.63;18.67;;;;;;;12.48;68.60;102860.50;5124477;28;20912;-43
2021/12/15 02:55:28;;;;;;;46.95;18.88;;;;;;;12.49;68.68;102859.56;5128379;28;20435;-43
2021/12/15 02:58:00;;;;;;;41.17;19.13;;;;;;;12.48;68.78;102865.81;5129000;28;20441;-43
2021/12/15 03:00:46;;;;;;;41.90;18.40;;;;;;;12.40;68.60;102853.13;5129438;28;20526;-44
2021/12/15 03:03:55;;;;;;;36.30;18.02;;;;;;;12.48;68.64;102863.16;5129181;28;20418;-44
2021/12/15 03:06:34;;;;;;;39.15;17.30;;;;;;;12.48;68.65;102871.09;5127025;28;20440;-45
2021/12/15 03:09:38;;;;;;;33.05;17.02;;;;;;;12.46;68.64;102864.13;5118473;28;20431;-44
2021/12/15 03:17:56;;;;;;;45.72;21.92;;;;;;;12.48;68.58;102857.84;5125022;28;20491;-47
2021/12/15 03:20:30;;;;;;;43.42;20.90;;;;;;;12.44;68.81;102868.69;5117968;28;20444;-44
2021/12/15 03:23:06;;;;;;;46.65;22.02;;;;;;;12.45;68.66;102861.59;5126558;28;20483;-45
2021/12/15 03:25:41;;;;;;;45.03;22.17;;;;;;;12.46;68.59;102858.81;5127785;28;20492;-44
2021/12/15 03:34:12;;;;;;;43.70;20.38;;;;;;;12.43;68.72;102859.03;5102550;28;20422;-44
2021/12/15 03:37:06;;;;;;;38.78;21.23;;;;;;;12.45;68.66;102864.25;5103399;28;20449;-44
2021/12/15 03:39:45;;;;;;;39.85;19.13;;;;;;;12.40;68.59;102853.97;5118579;28;20426;-44
2021/12/15 03:42:25;;;;;;;41.88;19.60;;;;;;;12.36;68.62;102852.50;5124769;28;20443;-53
2021/12/15 03:45:00;;;;;;;41.45;18.95;;;;;;;12.40;68.75;102872.53;5123985;28;20640;-44
2021/12/15 03:47:36;;;;;;;35.13;17.70;;;;;;;12.39;68.71;102868.19;5129246;28;20434;-44
2021/12/15 03:50:14;;;;;;;34.80;20.45;;;;;;;12.37;68.68;102862.16;5123837;28;20865;-43
2021/12/15 03:52:49;;;;;;;37.23;18.83;;;;;;;12.41;68.72;102868.91;5121514;28;20935;-44
2021/12/15 03:55:26;;;;;;;33.47;18.25;;;;;;;12.43;68.63;102877.59;5127529;28;20439;-50
2021/12/15 03:58:06;;;;;;;39.77;20.20;;;;;;;12.47;68.58;102870.25;5127716;28;20491;-43
2021/12/15 04:00:42;;;;;;;40.15;19.38;;;;;;;12.48;68.60;102873.75;5127703;28;20424;-43
2021/12/15 04:03:19;;;;;;;38.10;19.80;;;;;;;12.45;68.42;102873.03;5127799;28;20408;-44
2021/12/15 04:05:52;;;;;;;41.47;19.23;;;;;;;12.50;68.41;102879.78;5123050;28;20424;-49
2021/12/15 04:08:26;;;;;;;38.70;19.60;;;;;;;12.46;68.51;102874.72;5128697;28;20797;-44
2021/12/15 04:11:03;;;;;;;44.55;20.05;;;;;;;12.48;68.50;102873.75;5129848;28;20420;-44
2021/12/15 04:13:36;;;;;;;36.20;20.02;;;;;;;12.50;68.37;102870.03;5125410;28;20419;-45
2021/12/15 04:16:28;;;;;;;41.50;19.60;;;;;;;12.52;68.34;102872.59;5128383;28;20904;-44
2021/12/15 04:19:02;;;;;;;41.67;19.77;;;;;;;12.50;68.50;102880.63;5126641;28;20499;-44
2021/12/15 04:21:35;;;;;;;40.92;19.80;;;;;;;12.53;68.41;102879.56;5126097;28;20428;-44
2021/12/15 04:24:10;;;;;;;40.40;21.02;;;;;;;12.49;68.43;102881.59;5128844;28;20511;-44
2021/12/15 04:26:44;;;;;;;43.35;21.05;;;;;;;12.50;68.50;102885.94;5127351;28;20507;-44
2021/12/15 04:29:18;;;;;;;45.28;20.48;;;;;;;12.40;68.51;102869.88;5127750;28;20775;-43
2021/12/15 04:31:59;;;;;;;41.25;19.13;;;;;;;12.44;68.64;102884.56;5116152;28;20421;-47
2021/12/15 04:34:32;;;;;;;43.45;20.67;;;;;;;12.45;68.15;102886.28;5125443;28;20761;-46
2021/12/15 04:37:05;;;;;;;44.67;21.40;;;;;;;12.51;68.52;102886.78;5126725;28;20437;-43
2021/12/15 04:39:37;;;;;;;39.03;20.55;;;;;;;12.46;68.40;102887.97;5127659;28;20424;-44
2021/12/15 04:42:12;;;;;;;45.08;20.27;;;;;;;12.40;68.49;102888.41;5126203;28;20505;-44
2021/12/15 04:44:46;;;;;;;39.50;19.85;;;;;;;12.43;68.50;102885.53;5126007;28;20440;-44
2021/12/15 04:47:19;;;;;;;40.55;18.95;;;;;;;12.45;68.48;102888.09;5126442;28;20500;-44
2021/12/15 04:49:55;;;;;;;42.28;18.00;;;;;;;12.44;68.47;102887.22;5124300;28;20404;-48
2021/12/15 04:52:46;;;;;;;44.40;18.67;;;;;;;12.42;68.50;102886.50;5125192;28;20440;-44
2021/12/15 04:55:20;;;;;;;32.80;17.52;;;;;;;12.42;68.52;102890.97;5125299;28;20440;-45
2021/12/15 04:57:53;;;;;;;36.33;17.23;;;;;;;12.45;68.40;102894.25;5124223;28;20425;-46
2021/12/15 05:00:32;;;;;;;38.75;16.92;;;;;;;12.43;68.53;102890.84;5127927;28;20792;-44
2021/12/15 05:03:06;;;;;;;41.28;17.85;;;;;;;12.43;68.40;102890.84;5126110;28;20428;-44
2021/12/15 05:05:41;;;;;;;38.87;16.13;;;;;;;12.30;68.44;102874.16;5126605;28;20541;-43
2021/12/15 05:08:13;;;;;;;34.22;15.80;;;;;;;12.34;68.52;102891.50;5123994;28;20431;-47
2021/12/15 05:10:46;;;;;;;38.10;17.00;;;;;;;12.40;68.36;102891.06;5125795;28;20416;-43
2021/12/15 05:13:19;;;;;;;35.25;16.90;;;;;;;12.41;68.54;102898.06;5124863;28;20455;-44
2021/12/15 05:15:53;;;;;;;38.20;17.27;;;;;;;12.42;68.50;102899.75;5119848;28;20420;-49
2021/12/15 05:18:25;;;;;;;40.15;18.33;;;;;;;12.43;68.43;102900.59;5124358;28;20422;-45
2021/12/15 05:20:59;;;;;;;37.00;17.83;;;;;;;12.45;68.39;102893.41;5127867;28;20436;-47
2021/12/15 05:24:13;;;;;;;35.75;17.88;;;;;;;12.50;68.40;102901.00;5126982;28;20524;-43
2021/12/15 05:26:46;;;;;;;36.30;17.30;;;;;;;12.48;68.28;102894.94;5131269;28;20428;-43
2021/12/15 05:29:18;;;;;;;38.33;18.35;;;;;;;12.48;68.29;102892.31;5128809;28;20447;-45
2021/12/15 05:31:52;;;;;;;34.90;17.52;;;;;;;12.45;68.36;102902.19;5128506;28;20896;-41
2021/12/15 05:34:25;;;;;;;40.72;18.67;;;;;;;12.47;68.38;102896.75;5126278;28;20428;-44
2021/12/15 05:36:58;;;;;;;37.13;17.57;;;;;;;12.48;68.29;102908.19;5126907;28;20502;-42
2021/12/15 05:39:30;;;;;;;42.50;17.48;;;;;;;12.44;68.22;102900.47;5130609;28;20918;-45
2021/12/15 05:42:04;;;;;;;42.63;18.75;;;;;;;12.44;68.30;102897.81;5125478;28;20442;-44
2021/12/15 05:44:37;;;;;;;40.03;17.20;;;;;;;12.45;68.31;102904.84;5128505;28;20499;-44
2021/12/15 05:47:11;;;;;;;38.13;18.40;;;;;;;12.45;68.27;102902.19;5125998;28;20432;-43
2021/12/15 05:49:44;;;;;;;46.63;18.47;;;;;;;12.42;68.40;102905.06;5128282;28;20548;-44
2021/12/15 05:52:17;;;;;;;37.83;18.38;;;;;;;12.42;68.32;102906.88;5128468;28;20432;-43
2021/12/15 05:54:49;;;;;;;43.08;19.00;;;;;;;12.35;68.61;102897.66;5127506;28;20424;-49
2021/12/15 05:57:22;;;;;;;34.40;17.88;;;;;;;12.37;68.39;102901.03;5118028;28;20408;-42
2021/12/15 05:59:54;;;;;;;42.83;19.67;;;;;;;12.44;68.19;102903.13;5128394;28;20439;-42
2021/12/15 06:02:28;;;;;;;41.93;18.63;;;;;;;12.42;68.30;102902.41;5119927;28;20491;-46
2021/12/15 06:05:00;;;;;;;37.05;18.38;;;;;;;12.41;68.33;102907.81;5125926;28;20428;-42
2021/12/15 06:07:33;;;;;;;35.17;16.75;;;;;;;12.34;68.33;102902.13;5128106;28;20420;-44
2021/12/15 06:10:08;;;;;;;35.28;15.93;;;;;;;12.43;68.23;102914.69;5126304;28;20436;-43
2021/12/15 06:12:40;;;;;;;38.13;17.83;;;;;;;12.42;68.28;102920.97;5129278;28;20978;-44
2021/12/15 06:15:14;;;;;;;34.72;16.63;;;;;;;12.44;68.23;102923.50;5128564;28;20768;-44
2021/12/15 06:17:47;;;;;;;32.45;17.08;;;;;;;12.43;68.21;102921.81;5112374;28;20878;-43
2021/12/15 06:20:20;;;;;;;39.15;17.17;;;;;;;12.43;68.22;102927.94;5129657;28;20435;-43
2021/12/15 06:22:55;;;;;;;35.42;16.88;;;;;;;12.43;68.20;102914.69;5125398;28;20410;-44
2021/12/15 06:25:28;;;;;;;28.58;15.48;;;;;;;12.45;68.29;102926.03;5127523;28;20861;-43
2021/12/15 06:28:00;;;;;;;34.03;16.80;;;;;;;12.46;68.23;102927.72;5128474;28;20439;-44
2021/12/15 06:30:33;;;;;;;33.60;16.33;;;;;;;12.46;68.21;102930.38;5128788;28;20511;-45
2021/12/15 06:33:08;;;;;;;36.70;15.90;;;;;;;12.45;68.21;102920.75;5121175;28;20428;-44
2021/12/15 06:35:41;;;;;;;35.28;16.85;;;;;;;12.45;68.34;102931.34;5122794;28;23334;-44
2021/12/15 06:38:13;;;;;;;32.25;17.27;;;;;;;12.46;68.17;102930.38;5128645;28;20430;-45
2021/12/15 06:40:46;;;;;;;38.50;16.25;;;;;;;12.50;68.23;102932.81;5126095;28;20503;-42
2021/12/15 06:43:18;;;;;;;32.15;16.58;;;;;;;12.51;68.15;102937.13;5129235;28;20761;-44
2021/12/15 06:46:07;;;;;;;29.27;14.82;;;;;;;12.51;68.26;102945.09;5128077;28;20414;-41
2021/12/15 07:00:17;;;;;;;34.28;16.70;;;;;;;12.32;68.42;102930.50;5045805;29;20534;-43
2021/12/15 07:02:50;;;;;;;36.25;16.17;;;;;;;12.40;68.39;102945.88;5038476;29;20420;-43
2021/12/15 07:05:26;;;;;;;36.45;16.05;;;;;;;12.35;68.41;102940.03;5080476;28;20426;-45
2021/12/15 07:08:02;;;;;;;30.50;15.23;;;;;;;12.42;68.38;102958.06;5124632;28;20896;-44
2021/12/15 07:10:39;;;;;;;38.42;15.05;;;;;;;12.42;68.27;102952.75;5134883;28;20923;-44
2021/12/15 07:13:13;;;;;;;30.02;15.02;;;;;;;12.44;68.31;102955.28;5127026;28;20430;-43
2021/12/15 07:15:46;;;;;;;31.23;16.15;;;;;;;12.43;68.36;102958.91;5124131;28;20410;-43
2021/12/15 07:18:27;;;;;;;35.42;15.77;;;;;;;12.42;68.31;102952.75;5126331;28;20924;-45
2021/12/15 07:21:07;;;;;;;32.97;14.88;;;;;;;12.42;68.41;102966.00;5124317;28;20436;-43
2021/12/15 07:23:39;;;;;;;32.38;14.98;;;;;;;12.38;68.18;102951.25;5127973;28;20432;-44
2021/12/15 07:26:14;;;;;;;35.10;15.68;;;;;;;12.45;68.08;102968.44;5126746;28;20889;-43
2021/12/15 07:28:46;;;;;;;31.55;15.90;;;;;;;12.43;68.35;102970.34;5127540;28;20424;-43
2021/12/15 07:31:20;;;;;;;31.65;15.30;;;;;;;12.45;68.34;102965.78;5127045;28;20436;-44
2021/12/15 07:33:52;;;;;;;34.03;15.23;;;;;;;12.45;68.32;102968.44;5128017;28;21058;-45
2021/12/15 07:36:26;;;;;;;32.80;16.02;;;;;;;12.46;68.21;102964.81;5127362;28;20541;-43
2021/12/15 07:39:23;;;;;;;34.22;16.15;;;;;;;12.46;68.19;102959.53;5120601;28;20428;-44
2021/12/15 07:42:05;;;;;;;38.17;14.37;;;;;;;12.44;68.26;102960.59;5123319;28;20904;-43
2021/12/15 07:44:39;;;;;;;35.85;15.73;;;;;;;12.44;68.48;102958.78;5129977;28;20417;-44
2021/12/15 07:47:11;;;;;;;30.83;15.52;;;;;;;12.46;68.35;102970.13;5128177;28;20416;-45
2021/12/15 07:49:43;;;;;;;28.20;14.52;;;;;;;12.44;68.40;102972.03;5128923;28;20412;-44
2021/12/15 07:52:17;;;;;;;34.72;16.17;;;;;;;12.31;68.57;102947.38;5130088;28;20547;-44
2021/12/15 07:54:50;;;;;;;30.98;14.52;;;;;;;12.42;68.36;102968.66;5126551;28;20435;-45
2021/12/15 07:57:27;;;;;;;31.00;13.75;;;;;;;12.40;68.36;102964.44;5123683;28;20459;-45
2021/12/15 07:59:59;;;;;;;35.65;15.90;;;;;;;12.31;68.49;102963.28;5127648;28;20428;-43
2021/12/15 08:02:32;;;;;;;31.80;15.27;;;;;;;12.42;68.36;102978.41;5125397;28;20527;-45
2021/12/15 08:05:05;;;;;;;33.13;15.77;;;;;;;12.43;68.28;102980.09;5127288;28;20515;-45
2021/12/15 08:07:39;;;;;;;27.50;15.18;;;;;;;12.41;68.27;102988.16;5126364;28;20424;-43
2021/12/15 08:10:13;;;;;;;31.33;14.60;;;;;;;12.39;68.22;102984.78;5127371;28;20432;-43
2021/12/15 08:12:47;;;;;;;28.75;15.15;;;;;;;12.37;68.45;102981.38;5127782;28;20904;-45
2021/12/15 08:15:20;;;;;;;39.42;16.38;;;;;;;12.32;68.47;102983.50;5126922;28;20428;-44
2021/12/15 08:17:53;;;;;;;42.53;18.83;;;;;;;12.28;68.42;102982.03;5123442;28;20415;-44
2021/12/15 08:20:30;;;;;;;46.70;25.33;;;;;;;12.26;68.46;102983.94;5127295;28;20431;-42
2021/12/15 08:23:05;;;;;;;32.10;16.02;;;;;;;12.27;68.35;102980.34;5127116;28;20454;-44
2021/12/15 08:25:39;;;;;;;41.83;17.87;;;;;;;12.28;68.40;102987.34;5126848;28;20416;-46
2021/12/15 08:28:12;;;;;;;37.67;17.55;;;;;;;12.29;68.35;102994.31;5123043;28;20892;-43
2021/12/15 08:30:48;;;;;;;35.90;16.70;;;;;;;12.30;68.19;102990.72;5123489;28;20519;-44
2021/12/15 08:33:23;;;;;;;31.65;15.18;;;;;;;12.31;68.33;102991.56;5124343;28;20420;-43
2021/12/15 08:35:59;;;;;;;40.42;15.88;;;;;;;12.34;68.36;102991.34;5123265;28;21026;-42
2021/12/15 08:38:36;;;;;;;36.37;16.20;;;;;;;12.36;68.33;102990.31;5088533;28;20419;-43
2021/12/15 08:41:12;;;;;;;37.10;17.20;;;;;;;12.40;68.20;102991.75;5086517;29;20809;-41
2021/12/15 08:43:44;;;;;;;39.67;16.10;;;;;;;12.38;68.30;102985.72;5087579;28;20928;-47
2021/12/15 08:46:20;;;;;;;33.95;14.20;;;;;;;12.42;68.27;102989.88;5086429;29;20432;-42
2021/12/15 08:48:53;;;;;;;32.97;15.18;;;;;;;12.44;68.21;102985.28;5082211;29;20442;-43
2021/12/15 08:51:27;;;;;;;38.45;15.00;;;;;;;12.46;68.17;103001.94;5087571;29;20656;-42
2021/12/15 08:54:08;;;;;;;32.53;15.20;;;;;;;12.48;68.20;102996.53;5086404;28;20428;-43
2021/12/15 08:56:41;;;;;;;32.25;13.90;;;;;;;12.49;68.22;103000.88;5085470;29;20761;-43
2021/12/15 08:59:15;;;;;;;35.10;12.38;;;;;;;12.50;68.22;102991.09;5086957;28;20780;-44
2021/12/15 09:01:48;;;;;;;30.80;11.93;;;;;;;12.50;68.26;102997.25;5088742;28;20852;-44
2021/12/15 09:04:21;;;;;;;29.80;11.70;;;;;;;12.53;68.31;103001.50;5079932;29;20932;-43
2021/12/15 09:06:54;;;;;;;22.43;10.93;;;;;;;12.54;68.31;103009.34;5080877;28;20473;-43
2021/12/15 09:09:28;;;;;;;29.00;11.55;;;;;;;12.54;68.20;103014.66;5070352;29;20442;-43
2021/12/15 09:12:02;;;;;;;25.15;10.70;;;;;;;12.57;68.31;103013.56;5087679;28;20867;-46
2021/12/15 09:14:34;;;;;;;23.55;9.48;;;;;;;12.59;68.24;103014.31;5084661;28;20431;-46
2021/12/15 09:17:07;;;;;;;20.90;8.93;;;;;;;12.57;68.33;103018.88;5084540;29;20431;-47
2021/12/15 09:19:39;;;;;;;27.33;9.55;;;;;;;12.60;68.41;103023.94;5085202;28;20436;-45
2021/12/15 09:22:11;;;;;;;26.45;8.55;;;;;;;12.63;68.48;103029.03;5086504;29;20772;-43
2021/12/15 09:24:45;;;;;;;23.20;8.57;;;;;;;12.63;68.27;103021.06;5086109;28;20800;-45
2021/12/15 09:27:17;;;;;;;20.65;8.20;;;;;;;12.66;68.36;103023.50;5089074;28;20443;-44
2021/12/15 09:29:50;;;;;;;22.13;7.80;;;;;;;12.70;68.34;103019.69;5080972;29;20464;-44
2021/12/15 09:32:22;;;;;;;24.17;7.88;;;;;;;12.75;68.26;103022.84;5079566;29;20473;-48
2021/12/15 09:34:55;;;;;;;19.77;6.95;;;;;;;12.78;68.21;103027.94;5082304;28;20442;-44
2021/12/15 09:37:28;;;;;;;23.80;8.40;;;;;;;12.82;68.26;103024.13;5102146;28;20491;-45
2021/12/15 09:40:04;;;;;;;16.50;6.43;;;;;;;12.88;68.06;103026.31;5123505;28;20454;-44
2021/12/15 09:42:37;;;;;;;20.80;7.50;;;;;;;12.91;68.01;103034.06;5121052;28;20451;-44
2021/12/15 09:45:29;;;;;;;21.10;7.38;;;;;;;12.93;68.16;103034.78;5120770;28;20436;-44
2021/12/15 09:56:21;;;;;;;16.85;6.15;;;;;;;12.93;68.10;103037.44;5121902;28;20420;-46
2021/12/15 10:02:53;;;;;;;17.15;5.93;;;;;;;12.99;68.13;103056.53;5119041;28;21762;-45
2021/12/15 10:05:39;;;;;;;21.38;6.28;;;;;;;13.04;68.10;103054.38;5120595;28;20416;-44
2021/12/15 10:11:32;;;;;;;18.55;5.25;;;;;;;13.14;67.65;103063.38;5119059;28;20468;-43
2021/12/15 10:17:33;;;;;;;16.50;4.70;;;;;;;13.15;67.58;103057.09;5119305;28;20904;-44
2021/12/15 10:20:09;;;;;;;15.63;5.03;;;;;;;13.18;67.57;103066.63;5121619;28;20524;-43
2021/12/15 10:22:45;;;;;;;16.27;5.28;;;;;;;13.20;67.47;103065.56;5124647;28;21145;-43
2021/12/15 10:25:24;;;;;;;17.13;4.93;;;;;;;13.22;67.27;103063.63;5121634;28;20494;-47
2021/12/15 10:28:03;;;;;;;17.42;4.88;;;;;;;13.24;67.24;103067.03;5117783;28;20412;-46
2021/12/15 10:30:39;;;;;;;16.63;4.47;;;;;;;13.23;67.11;103065.34;5118956;28;20435;-44
2021/12/15 10:33:17;;;;;;;13.82;3.58;;;;;;;13.22;67.02;103063.63;5125589;28;20960;-45
2021/12/15 10:35:53;;;;;;;20.42;4.82;;;;;;;13.26;66.85;103057.19;5117723;28;20424;-43
2021/12/15 10:38:29;;;;;;;16.05;5.55;;;;;;;13.30;66.89;103061.31;5118647;28;20426;-48
2021/12/15 10:41:08;;;;;;;14.02;4.22;;;;;;;13.34;66.64;103060.09;5122653;28;20503;-43
2021/12/15 10:43:47;;;;;;;14.70;4.28;;;;;;;13.34;66.47;103057.44;5121353;28;20434;-47
2021/12/15 10:46:25;;;;;;;18.65;4.28;;;;;;;13.33;66.37;103061.06;5121632;28;20813;-47
2021/12/15 10:49:00;;;;;;;14.73;4.47;;;;;;;13.38;66.38;103069.56;5116459;28;20522;-44
2021/12/15 10:51:41;;;;;;;13.02;4.72;;;;;;;13.40;66.27;103066.78;5123734;28;20508;-43
2021/12/15 10:54:17;;;;;;;20.33;5.53;;;;;;;13.42;66.39;103074.63;5124634;28;20482;-44
2021/12/15 10:56:54;;;;;;;16.77;4.25;;;;;;;13.43;66.19;103066.53;5126268;28;20436;-44
2021/12/15 10:59:29;;;;;;;13.93;4.53;;;;;;;13.47;66.11;103069.81;5120953;28;20427;-42
2021/12/15 11:02:06;;;;;;;19.08;5.05;;;;;;;13.47;66.01;103072.47;5122980;28;20423;-45
2021/12/15 11:04:45;;;;;;;17.60;4.77;;;;;;;13.44;65.98;103075.34;5126568;28;20554;-46
2021/12/15 11:07:24;;;;;;;16.83;5.37;;;;;;;13.44;65.86;103062.06;5124729;28;20861;-43
2021/12/15 11:10:02;;;;;;;16.20;4.43;;;;;;;13.55;65.93;103070.09;5122803;28;20534;-45
2021/12/15 11:12:37;;;;;;;22.55;4.43;;;;;;;13.57;65.66;103062.88;5122534;28;20803;-44
2021/12/15 11:15:14;;;;;;;11.98;3.97;;;;;;;13.67;65.57;103068.34;5124658;28;20432;-46
2021/12/15 11:17:54;;;;;;;17.08;4.10;;;;;;;13.67;65.56;103077.16;5127391;28;20408;-43
2021/12/15 11:20:30;;;;;;;9.25;4.13;;;;;;;13.68;65.41;103075.34;5120686;28;21025;-43
2021/12/15 11:23:04;;;;;;;12.70;3.70;;;;;;;13.68;65.26;103070.88;5127548;28;20776;-44
2021/12/15 11:25:45;;;;;;;15.15;3.67;;;;;;;13.64;65.38;103077.38;5126097;28;20446;-48
2021/12/15 11:28:23;;;;;;;16.40;3.90;;;;;;;13.65;65.32;103073.75;5123117;28;20428;-51
2021/12/15 11:31:02;;;;;;;21.33;4.75;;;;;;;13.67;65.13;103079.81;5122321;28;20432;-43
2021/12/15 11:33:41;;;;;;;15.77;6.22;;;;;;;13.67;65.09;103063.88;5123669;28;20420;-44
2021/12/15 11:36:17;;;;;;;10.63;3.10;;;;;;;13.63;64.94;103067.72;5121275;28;20921;-47
2021/12/15 11:38:54;;;;;;;9.00;2.70;;;;;;;13.57;65.08;103063.72;5126397;28;20408;-42
2021/12/15 11:41:31;;;;;;;7.20;2.72;;;;;;;13.54;64.99;103068.41;5123391;28;20404;-43
2021/12/15 11:44:07;;;;;;;7.70;2.67;;;;;;;13.55;64.85;103072.75;5122540;28;20438;-45
2021/12/15 11:46:43;;;;;;;8.63;3.13;;;;;;;13.49;64.64;103060.78;5123188;28;20440;-46
2021/12/15 11:49:20;;;;;;;9.57;3.17;;;;;;;13.54;64.54;103068.41;5123406;28;20438;-44
2021/12/15 11:51:56;;;;;;;9.10;2.70;;;;;;;13.54;64.54;103069.25;5117871;28;20510;-51
2021/12/15 11:54:32;;;;;;;10.13;2.97;;;;;;;13.54;64.25;103069.25;5126348;28;20432;-46
2021/12/15 11:57:08;;;;;;;8.18;2.90;;;;;;;13.57;63.98;103057.56;5123496;28;20436;-42
2021/12/15 11:59:44;;;;;;;10.73;2.83;;;;;;;13.57;64.05;103058.41;5127416;28;20424;-46
2021/12/15 12:02:23;;;;;;;7.13;2.20;;;;;;;13.60;64.00;103062.66;5122353;28;20442;-43
2021/12/15 12:05:00;;;;;;;8.07;2.22;;;;;;;13.62;63.70;103060.69;5121610;28;20453;-46
2021/12/15 12:07:34;;;;;;;7.50;2.60;;;;;;;13.60;63.46;103047.56;5123125;28;20435;-45
2021/12/15 12:10:13;;;;;;;8.63;2.30;;;;;;;13.67;63.42;103058.56;5124518;28;20442;-43
2021/12/15 12:12:52;;;;;;;9.88;2.38;;;;;;;13.65;63.23;103055.16;5124135;28;20734;-42
2021/12/15 12:15:30;;;;;;;7.40;2.72;;;;;;;13.64;62.88;103058.78;5123069;28;20428;-43
2021/12/15 12:18:09;;;;;;;8.60;2.40;;;;;;;13.64;63.10;103053.47;5121207;28;20432;-45
2021/12/15 12:20:45;;;;;;;7.93;2.17;;;;;;;13.64;62.95;103042.84;5121104;28;20427;-44
2021/12/15 12:23:20;;;;;;;9.90;2.28;;;;;;;13.67;62.88;103041.78;5123690;28;20432;-44
2021/12/15 12:25:56;;;;;;;7.63;2.95;;;;;;;13.67;62.69;103045.28;5120924;28;20424;-47
2021/12/15 12:28:33;;;;;;;5.63;2.25;;;;;;;13.66;62.55;103050.69;5120629;28;20594;-43
2021/12/15 12:31:09;;;;;;;9.25;1.80;;;;;;;13.40;62.49;103010.19;5123136;28;20463;-44
2021/12/15 12:33:42;;;;;;;5.37;1.93;;;;;;;13.65;62.34;103049.84;5120466;28;20495;-44
2021/12/15 12:36:20;;;;;;;5.22;1.80;;;;;;;13.68;62.34;103054.09;5122389;28;20417;-45
2021/12/15 12:38:55;;;;;;;4.32;1.88;;;;;;;13.68;62.10;103056.75;5122513;28;20447;-41
2021/12/15 12:41:38;;;;;;;9.35;2.10;;;;;;;13.66;62.23;103056.88;5119012;28;20408;-45